sensor_id;sensor_type;location;lat;lon;timestamp;temperature;humidity
23124;DHT22;11731;48.592;8.858;2023-02-11T00:01:28;1.20;99.20
23124;DHT22;11731;48.592;8.858;2023-02-11T00:03:56;1.30;99.50
23124;DHT22;11731;48.592;8.858;2023-02-11T00:06:30;1.30;99.20
23124;DHT22;11731;48.592;8.858;2023-02-11T00:09:18;1.20;99.00
23124;DHT22;11731;48.592;8.858;2023-02-11T00:11:54;1.20;98.80
23124;DHT22;11731;48.592;8.858;2023-02-11T00:14:46;1.40;98.70
23124;DHT22;11731;48.592;8.858;2023-02-11T00:17:13;1.30;98.90
23124;DHT22;11731;48.592;8.858;2023-02-11T00:19:40;1.10;99.60
23124;DHT22;11731;48.592;8.858;2023-02-11T00:22:07;1.30;99.00
23124;DHT22;11731;48.592;8.858;2023-02-11T00:24:35;1.20;99.10
23124;DHT22;11731;48.592;8.858;2023-02-11T00:27:02;1.20;98.70
23124;DHT22;11731;48.592;8.858;2023-02-11T00:32:47;1.30;98.40
23124;DHT22;11731;48.592;8.858;2023-02-11T00:35:28;1.10;98.50
23124;DHT22;11731;48.592;8.858;2023-02-11T00:37:55;1.10;98.90
23124;DHT22;11731;48.592;8.858;2023-02-11T00:40:23;1.20;98.70
23124;DHT22;11731;48.592;8.858;2023-02-11T00:42:54;1.20;99.00
23124;DHT22;11731;48.592;8.858;2023-02-11T00:45:32;1.20;99.10
23124;DHT22;11731;48.592;8.858;2023-02-11T00:48:03;1.10;98.20
23124;DHT22;11731;48.592;8.858;2023-02-11T00:50:30;1.00;98.50
23124;DHT22;11731;48.592;8.858;2023-02-11T00:52:57;1.00;98.60
23124;DHT22;11731;48.592;8.858;2023-02-11T00:55:24;0.90;98.80
23124;DHT22;11731;48.592;8.858;2023-02-11T00:58:25;1.00;98.70
23124;DHT22;11731;48.592;8.858;2023-02-11T01:00:52;1.00;98.70
23124;DHT22;11731;48.592;8.858;2023-02-11T01:09:46;0.90;99.10
23124;DHT22;11731;48.592;8.858;2023-02-11T01:12:13;0.90;99.00
23124;DHT22;11731;48.592;8.858;2023-02-11T01:14:42;1.10;98.80
23124;DHT22;11731;48.592;8.858;2023-02-11T01:17:52;1.10;98.50
23124;DHT22;11731;48.592;8.858;2023-02-11T01:20:39;1.10;98.70
23124;DHT22;11731;48.592;8.858;2023-02-11T01:23:06;1.00;98.50
23124;DHT22;11731;48.592;8.858;2023-02-11T01:25:51;1.00;98.90
23124;DHT22;11731;48.592;8.858;2023-02-11T01:28:23;1.00;98.90
23124;DHT22;11731;48.592;8.858;2023-02-11T01:30:50;1.10;98.80
23124;DHT22;11731;48.592;8.858;2023-02-11T01:34:35;0.90;98.90
23124;DHT22;11731;48.592;8.858;2023-02-11T01:37:13;1.00;98.30
23124;DHT22;11731;48.592;8.858;2023-02-11T01:39:33;1.00;98.70
23124;DHT22;11731;48.592;8.858;2023-02-11T01:42:02;1.10;98.70
23124;DHT22;11731;48.592;8.858;2023-02-11T01:44:30;1.10;98.40
23124;DHT22;11731;48.592;8.858;2023-02-11T01:46:58;1.00;98.90
23124;DHT22;11731;48.592;8.858;2023-02-11T01:49:32;1.00;98.70
23124;DHT22;11731;48.592;8.858;2023-02-11T01:52:25;1.00;98.80
23124;DHT22;11731;48.592;8.858;2023-02-11T01:54:58;0.90;98.60
23124;DHT22;11731;48.592;8.858;2023-02-11T01:57:46;1.00;98.90
23124;DHT22;11731;48.592;8.858;2023-02-11T02:00:25;1.00;98.60
23124;DHT22;11731;48.592;8.858;2023-02-11T02:02:55;1.00;98.40
23124;DHT22;11731;48.592;8.858;2023-02-11T02:05:29;0.90;98.40
23124;DHT22;11731;48.592;8.858;2023-02-11T02:11:10;0.80;98.70
23124;DHT22;11731;48.592;8.858;2023-02-11T02:13:37;0.60;98.50
23124;DHT22;11731;48.592;8.858;2023-02-11T02:16:20;0.60;98.60
23124;DHT22;11731;48.592;8.858;2023-02-11T02:18:54;0.70;98.80
23124;DHT22;11731;48.592;8.858;2023-02-11T02:21:51;0.70;98.80
23124;DHT22;11731;48.592;8.858;2023-02-11T02:27:45;0.80;99.00
23124;DHT22;11731;48.592;8.858;2023-02-11T02:39:52;0.90;99.00
23124;DHT22;11731;48.592;8.858;2023-02-11T02:42:20;0.90;98.80
23124;DHT22;11731;48.592;8.858;2023-02-11T02:44:48;0.80;99.20
23124;DHT22;11731;48.592;8.858;2023-02-11T02:47:17;0.90;99.20
23124;DHT22;11731;48.592;8.858;2023-02-11T02:49:52;0.90;99.20
23124;DHT22;11731;48.592;8.858;2023-02-11T02:55:28;1.10;99.10
23124;DHT22;11731;48.592;8.858;2023-02-11T03:01:20;1.10;99.70
23124;DHT22;11731;48.592;8.858;2023-02-11T03:03:59;1.10;99.80
23124;DHT22;11731;48.592;8.858;2023-02-11T03:06:32;0.90;99.70
23124;DHT22;11731;48.592;8.858;2023-02-11T03:09:03;0.90;99.70
23124;DHT22;11731;48.592;8.858;2023-02-11T03:11:33;0.90;99.60
23124;DHT22;11731;48.592;8.858;2023-02-11T03:14:02;1.10;99.50
23124;DHT22;11731;48.592;8.858;2023-02-11T03:16:37;0.90;99.40
23124;DHT22;11731;48.592;8.858;2023-02-11T03:19:10;0.80;99.30
23124;DHT22;11731;48.592;8.858;2023-02-11T03:21:39;0.80;99.70
23124;DHT22;11731;48.592;8.858;2023-02-11T03:24:12;0.80;99.70
23124;DHT22;11731;48.592;8.858;2023-02-11T03:26:45;0.90;99.30
23124;DHT22;11731;48.592;8.858;2023-02-11T03:31:27;0.90;99.50
23124;DHT22;11731;48.592;8.858;2023-02-11T03:32:25;1.00;99.80
23124;DHT22;11731;48.592;8.858;2023-02-11T03:34:56;1.00;99.70
23124;DHT22;11731;48.592;8.858;2023-02-11T03:37:27;1.10;99.50
23124;DHT22;11731;48.592;8.858;2023-02-11T03:40:51;1.10;99.10
23124;DHT22;11731;48.592;8.858;2023-02-11T03:43:39;1.20;98.70
23124;DHT22;11731;48.592;8.858;2023-02-11T03:46:11;1.20;98.70
23124;DHT22;11731;48.592;8.858;2023-02-11T03:48:42;1.20;98.80
23124;DHT22;11731;48.592;8.858;2023-02-11T03:51:24;1.00;99.10
23124;DHT22;11731;48.592;8.858;2023-02-11T03:53:54;1.10;99.10
23124;DHT22;11731;48.592;8.858;2023-02-11T03:56:42;1.00;98.90
23124;DHT22;11731;48.592;8.858;2023-02-11T04:02:36;0.90;99.50
23124;DHT22;11731;48.592;8.858;2023-02-11T04:05:03;0.80;99.40
23124;DHT22;11731;48.592;8.858;2023-02-11T04:07:31;0.50;99.30
23124;DHT22;11731;48.592;8.858;2023-02-11T04:09:58;0.10;99.60
23124;DHT22;11731;48.592;8.858;2023-02-11T04:12:25;0.20;99.80
23124;DHT22;11731;48.592;8.858;2023-02-11T04:15:24;0.40;99.50
23124;DHT22;11731;48.592;8.858;2023-02-11T04:17:55;0.50;98.90
23124;DHT22;11731;48.592;8.858;2023-02-11T04:20:22;0.20;99.90
23124;DHT22;11731;48.592;8.858;2023-02-11T04:22:49;0.20;99.90
23124;DHT22;11731;48.592;8.858;2023-02-11T04:25:16;0.30;99.90
23124;DHT22;11731;48.592;8.858;2023-02-11T04:27:43;0.50;99.90
23124;DHT22;11731;48.592;8.858;2023-02-11T04:31:35;0.60;99.90
23124;DHT22;11731;48.592;8.858;2023-02-11T04:33:16;0.90;99.40
23124;DHT22;11731;48.592;8.858;2023-02-11T04:35:43;1.10;99.00
23124;DHT22;11731;48.592;8.858;2023-02-11T04:44:54;1.20;99.10
23124;DHT22;11731;48.592;8.858;2023-02-11T04:47:21;1.40;98.80
23124;DHT22;11731;48.592;8.858;2023-02-11T04:49:57;1.40;98.60
23124;DHT22;11731;48.592;8.858;2023-02-11T04:52:24;1.60;97.80
23124;DHT22;11731;48.592;8.858;2023-02-11T04:54:50;1.50;98.10
23124;DHT22;11731;48.592;8.858;2023-02-11T04:57:17;1.30;98.50
23124;DHT22;11731;48.592;8.858;2023-02-11T04:59:46;1.20;98.90
23124;DHT22;11731;48.592;8.858;2023-02-11T05:02:13;1.30;99.10
23124;DHT22;11731;48.592;8.858;2023-02-11T05:04:40;0.90;98.90
23124;DHT22;11731;48.592;8.858;2023-02-11T05:07:08;0.70;99.70
23124;DHT22;11731;48.592;8.858;2023-02-11T05:09:35;0.90;99.90
23124;DHT22;11731;48.592;8.858;2023-02-11T05:12:02;0.80;99.90
23124;DHT22;11731;48.592;8.858;2023-02-11T05:14:29;0.70;99.90
23124;DHT22;11731;48.592;8.858;2023-02-11T05:16:56;0.70;99.90
23124;DHT22;11731;48.592;8.858;2023-02-11T05:19:25;0.70;99.80
23124;DHT22;11731;48.592;8.858;2023-02-11T05:21:52;0.70;99.90
23124;DHT22;11731;48.592;8.858;2023-02-11T05:24:20;0.70;99.90
23124;DHT22;11731;48.592;8.858;2023-02-11T05:26:47;0.70;99.90
23124;DHT22;11731;48.592;8.858;2023-02-11T05:29:14;1.00;99.90
23124;DHT22;11731;48.592;8.858;2023-02-11T05:31:41;1.10;99.60
23124;DHT22;11731;48.592;8.858;2023-02-11T05:34:08;1.20;99.40
23124;DHT22;11731;48.592;8.858;2023-02-11T05:37:03;1.50;99.10
23124;DHT22;11731;48.592;8.858;2023-02-11T05:39:31;0.90;99.60
23124;DHT22;11731;48.592;8.858;2023-02-11T05:41:58;0.80;99.90
23124;DHT22;11731;48.592;8.858;2023-02-11T05:44:25;0.60;99.90
23124;DHT22;11731;48.592;8.858;2023-02-11T05:46:52;0.30;99.90
23124;DHT22;11731;48.592;8.858;2023-02-11T05:49:21;0.20;99.90
23124;DHT22;11731;48.592;8.858;2023-02-11T05:51:48;0.10;99.90
23124;DHT22;11731;48.592;8.858;2023-02-11T05:54:16;0.50;99.90
23124;DHT22;11731;48.592;8.858;2023-02-11T05:56:44;1.20;99.90
23124;DHT22;11731;48.592;8.858;2023-02-11T05:59:12;1.60;99.90
23124;DHT22;11731;48.592;8.858;2023-02-11T06:01:39;1.40;99.90
23124;DHT22;11731;48.592;8.858;2023-02-11T06:04:06;1.10;99.90
23124;DHT22;11731;48.592;8.858;2023-02-11T06:06:33;1.40;99.90
23124;DHT22;11731;48.592;8.858;2023-02-11T06:09:00;1.70;98.90
23124;DHT22;11731;48.592;8.858;2023-02-11T06:11:27;1.90;99.20
23124;DHT22;11731;48.592;8.858;2023-02-11T06:13:58;1.80;99.20
23124;DHT22;11731;48.592;8.858;2023-02-11T06:17:19;1.50;99.00
23124;DHT22;11731;48.592;8.858;2023-02-11T06:19:45;1.90;99.60
23124;DHT22;11731;48.592;8.858;2023-02-11T06:22:18;1.40;99.40
23124;DHT22;11731;48.592;8.858;2023-02-11T06:24:45;1.70;99.20
23124;DHT22;11731;48.592;8.858;2023-02-11T06:27:13;1.80;99.30
23124;DHT22;11731;48.592;8.858;2023-02-11T06:29:43;1.90;99.10
23124;DHT22;11731;48.592;8.858;2023-02-11T06:32:10;2.10;99.40
23124;DHT22;11731;48.592;8.858;2023-02-11T06:34:38;2.20;99.10
23124;DHT22;11731;48.592;8.858;2023-02-11T06:37:22;2.40;98.70
23124;DHT22;11731;48.592;8.858;2023-02-11T06:39:49;2.50;98.80
23124;DHT22;11731;48.592;8.858;2023-02-11T06:42:16;2.60;98.80
23124;DHT22;11731;48.592;8.858;2023-02-11T06:44:44;2.70;98.50
23124;DHT22;11731;48.592;8.858;2023-02-11T06:47:16;2.60;98.20
23124;DHT22;11731;48.592;8.858;2023-02-11T06:49:44;2.40;98.70
23124;DHT22;11731;48.592;8.858;2023-02-11T06:52:11;2.30;99.20
23124;DHT22;11731;48.592;8.858;2023-02-11T06:54:38;2.20;98.80
23124;DHT22;11731;48.592;8.858;2023-02-11T06:57:05;2.20;99.20
23124;DHT22;11731;48.592;8.858;2023-02-11T06:59:32;2.40;99.00
23124;DHT22;11731;48.592;8.858;2023-02-11T07:02:00;2.40;99.00
23124;DHT22;11731;48.592;8.858;2023-02-11T07:04:27;2.40;98.50
23124;DHT22;11731;48.592;8.858;2023-02-11T07:06:54;2.30;98.70
23124;DHT22;11731;48.592;8.858;2023-02-11T07:09:21;2.40;98.90
23124;DHT22;11731;48.592;8.858;2023-02-11T07:11:48;2.70;99.00
23124;DHT22;11731;48.592;8.858;2023-02-11T07:14:15;2.60;98.40
23124;DHT22;11731;48.592;8.858;2023-02-11T07:16:42;2.50;98.90
23124;DHT22;11731;48.592;8.858;2023-02-11T07:19:47;2.70;99.00
23124;DHT22;11731;48.592;8.858;2023-02-11T07:22:21;2.90;98.90
23124;DHT22;11731;48.592;8.858;2023-02-11T07:24:49;2.70;97.60
23124;DHT22;11731;48.592;8.858;2023-02-11T07:34:01;2.50;99.60
23124;DHT22;11731;48.592;8.858;2023-02-11T07:36:30;2.40;99.90
23124;DHT22;11731;48.592;8.858;2023-02-11T07:38:57;2.20;99.80
23124;DHT22;11731;48.592;8.858;2023-02-11T07:41:26;2.10;99.90
23124;DHT22;11731;48.592;8.858;2023-02-11T07:43:54;2.10;99.90
23124;DHT22;11731;48.592;8.858;2023-02-11T07:46:23;2.10;99.90
23124;DHT22;11731;48.592;8.858;2023-02-11T07:48:50;2.30;99.90
23124;DHT22;11731;48.592;8.858;2023-02-11T07:51:19;2.50;99.90
23124;DHT22;11731;48.592;8.858;2023-02-11T07:53:48;2.80;99.90
23124;DHT22;11731;48.592;8.858;2023-02-11T07:56:17;3.20;99.20
23124;DHT22;11731;48.592;8.858;2023-02-11T07:58:45;2.90;99.20
23124;DHT22;11731;48.592;8.858;2023-02-11T08:01:14;3.20;98.80
23124;DHT22;11731;48.592;8.858;2023-02-11T08:03:42;3.30;98.80
23124;DHT22;11731;48.592;8.858;2023-02-11T08:06:33;3.50;98.20
23124;DHT22;11731;48.592;8.858;2023-02-11T08:09:21;3.50;98.50
23124;DHT22;11731;48.592;8.858;2023-02-11T08:11:48;3.20;98.70
23124;DHT22;11731;48.592;8.858;2023-02-11T08:14:15;3.50;98.60
23124;DHT22;11731;48.592;8.858;2023-02-11T08:16:42;3.70;98.60
23124;DHT22;11731;48.592;8.858;2023-02-11T08:19:18;3.40;98.20
23124;DHT22;11731;48.592;8.858;2023-02-11T08:21:45;3.10;98.80
23124;DHT22;11731;48.592;8.858;2023-02-11T08:24:12;3.00;98.90
23124;DHT22;11731;48.592;8.858;2023-02-11T08:26:49;3.00;99.20
23124;DHT22;11731;48.592;8.858;2023-02-11T08:29:16;3.00;99.50
23124;DHT22;11731;48.592;8.858;2023-02-11T08:31:49;3.20;99.90
23124;DHT22;11731;48.592;8.858;2023-02-11T08:37:22;4.10;98.60
23124;DHT22;11731;48.592;8.858;2023-02-11T08:40:53;4.50;97.90
23124;DHT22;11731;48.592;8.858;2023-02-11T08:46:01;4.80;97.60
23124;DHT22;11731;48.592;8.858;2023-02-11T08:48:28;5.00;97.50
23124;DHT22;11731;48.592;8.858;2023-02-11T08:50:56;4.80;97.60
23124;DHT22;11731;48.592;8.858;2023-02-11T08:54:50;4.90;97.80
23124;DHT22;11731;48.592;8.858;2023-02-11T08:56:50;5.40;97.30
23124;DHT22;11731;48.592;8.858;2023-02-11T08:59:23;5.80;97.00
23124;DHT22;11731;48.592;8.858;2023-02-11T09:01:51;5.90;96.30
23124;DHT22;11731;48.592;8.858;2023-02-11T09:04:18;5.90;96.90
23124;DHT22;11731;48.592;8.858;2023-02-11T09:07:02;6.00;97.00
23124;DHT22;11731;48.592;8.858;2023-02-11T09:10:04;6.10;97.10
23124;DHT22;11731;48.592;8.858;2023-02-11T09:12:33;6.30;97.10
23124;DHT22;11731;48.592;8.858;2023-02-11T09:15:06;6.40;96.20
23124;DHT22;11731;48.592;8.858;2023-02-11T09:20:50;5.90;97.20
23124;DHT22;11731;48.592;8.858;2023-02-11T09:23:47;6.00;96.60
23124;DHT22;11731;48.592;8.858;2023-02-11T09:32:37;6.60;96.80
23124;DHT22;11731;48.592;8.858;2023-02-11T09:35:05;6.70;96.30
23124;DHT22;11731;48.592;8.858;2023-02-11T09:37:55;6.60;96.10
23124;DHT22;11731;48.592;8.858;2023-02-11T09:40:22;6.10;97.10
23124;DHT22;11731;48.592;8.858;2023-02-11T09:43:14;6.30;97.00
23124;DHT22;11731;48.592;8.858;2023-02-11T09:47:20;6.50;96.60
23124;DHT22;11731;48.592;8.858;2023-02-11T09:53:12;6.60;97.00
23124;DHT22;11731;48.592;8.858;2023-02-11T09:55:42;6.20;97.40
23124;DHT22;11731;48.592;8.858;2023-02-11T09:58:12;6.40;97.30
23124;DHT22;11731;48.592;8.858;2023-02-11T10:00:43;6.60;97.20
23124;DHT22;11731;48.592;8.858;2023-02-11T10:09:48;6.40;97.40
23124;DHT22;11731;48.592;8.858;2023-02-11T10:15:44;6.70;97.40
23124;DHT22;11731;48.592;8.858;2023-02-11T10:18:39;6.80;97.30
23124;DHT22;11731;48.592;8.858;2023-02-11T10:21:18;7.10;97.00
23124;DHT22;11731;48.592;8.858;2023-02-11T10:23:50;7.20;97.00
23124;DHT22;11731;48.592;8.858;2023-02-11T10:26:21;7.10;96.60
23124;DHT22;11731;48.592;8.858;2023-02-11T10:28:52;7.10;96.50
23124;DHT22;11731;48.592;8.858;2023-02-11T10:31:50;6.80;97.20
23124;DHT22;11731;48.592;8.858;2023-02-11T10:36:51;7.00;97.50
23124;DHT22;11731;48.592;8.858;2023-02-11T10:37:42;7.30;96.70
23124;DHT22;11731;48.592;8.858;2023-02-11T10:40:28;7.60;96.10
23124;DHT22;11731;48.592;8.858;2023-02-11T10:43:00;7.70;96.60
23124;DHT22;11731;48.592;8.858;2023-02-11T10:45:32;7.80;96.20
23124;DHT22;11731;48.592;8.858;2023-02-11T10:48:01;8.00;96.10
23124;DHT22;11731;48.592;8.858;2023-02-11T10:50:33;7.90;95.70
23124;DHT22;11731;48.592;8.858;2023-02-11T10:53:11;7.90;96.30
23124;DHT22;11731;48.592;8.858;2023-02-11T10:56:19;7.90;96.30
23124;DHT22;11731;48.592;8.858;2023-02-11T10:58:44;8.10;96.20
23124;DHT22;11731;48.592;8.858;2023-02-11T11:01:12;8.30;95.90
23124;DHT22;11731;48.592;8.858;2023-02-11T11:03:45;8.40;95.80
23124;DHT22;11731;48.592;8.858;2023-02-11T11:06:12;8.40;96.00
23124;DHT22;11731;48.592;8.858;2023-02-11T11:08:43;8.40;95.70
23124;DHT22;11731;48.592;8.858;2023-02-11T11:11:11;8.50;95.80
23124;DHT22;11731;48.592;8.858;2023-02-11T11:13:58;8.60;96.00
23124;DHT22;11731;48.592;8.858;2023-02-11T11:19:45;8.50;95.70
23124;DHT22;11731;48.592;8.858;2023-02-11T11:22:19;8.70;95.30
23124;DHT22;11731;48.592;8.858;2023-02-11T11:24:48;8.60;95.70
23124;DHT22;11731;48.592;8.858;2023-02-11T11:27:30;8.60;95.60
23124;DHT22;11731;48.592;8.858;2023-02-11T11:29:58;8.80;95.40
23124;DHT22;11731;48.592;8.858;2023-02-11T11:35:58;9.30;95.20
23124;DHT22;11731;48.592;8.858;2023-02-11T11:38:28;9.10;95.40
23124;DHT22;11731;48.592;8.858;2023-02-11T11:43:42;8.80;95.40
23124;DHT22;11731;48.592;8.858;2023-02-11T11:44:37;8.90;95.60
23124;DHT22;11731;48.592;8.858;2023-02-11T11:47:25;9.10;95.60
23124;DHT22;11731;48.592;8.858;2023-02-11T11:59:26;9.10;96.00
23124;DHT22;11731;48.592;8.858;2023-02-11T12:02:25;8.70;96.00
23124;DHT22;11731;48.592;8.858;2023-02-11T12:05:17;8.70;96.40
23124;DHT22;11731;48.592;8.858;2023-02-11T12:07:56;8.90;96.00
23124;DHT22;11731;48.592;8.858;2023-02-11T12:10:33;9.30;95.80
23124;DHT22;11731;48.592;8.858;2023-02-11T12:13:18;9.50;95.50
23124;DHT22;11731;48.592;8.858;2023-02-11T12:15:56;9.60;95.10
23124;DHT22;11731;48.592;8.858;2023-02-11T12:18:55;9.80;95.20
23124;DHT22;11731;48.592;8.858;2023-02-11T12:21:41;9.60;95.30
23124;DHT22;11731;48.592;8.858;2023-02-11T12:24:23;9.70;95.20
23124;DHT22;11731;48.592;8.858;2023-02-11T12:27:00;9.50;95.20
23124;DHT22;11731;48.592;8.858;2023-02-11T12:29:35;9.90;95.20
23124;DHT22;11731;48.592;8.858;2023-02-11T12:32:15;9.90;94.90
23124;DHT22;11731;48.592;8.858;2023-02-11T12:35:03;9.90;95.00
23124;DHT22;11731;48.592;8.858;2023-02-11T12:37:41;10.20;94.30
23124;DHT22;11731;48.592;8.858;2023-02-11T12:40:15;10.40;93.70
23124;DHT22;11731;48.592;8.858;2023-02-11T12:46:36;10.80;93.30
23124;DHT22;11731;48.592;8.858;2023-02-11T12:49:37;10.60;93.50
23124;DHT22;11731;48.592;8.858;2023-02-11T12:52:21;10.80;93.50
23124;DHT22;11731;48.592;8.858;2023-02-11T12:54:58;10.90;93.30
23124;DHT22;11731;48.592;8.858;2023-02-11T12:57:29;11.00;92.90
23124;DHT22;11731;48.592;8.858;2023-02-11T13:00:01;11.10;92.90
23124;DHT22;11731;48.592;8.858;2023-02-11T13:02:38;10.90;92.80
23124;DHT22;11731;48.592;8.858;2023-02-11T13:05:20;11.10;92.80
23124;DHT22;11731;48.592;8.858;2023-02-11T13:07:50;10.90;92.80
23124;DHT22;11731;48.592;8.858;2023-02-11T13:10:26;10.80;92.80
23124;DHT22;11731;48.592;8.858;2023-02-11T13:12:56;11.10;92.80
23124;DHT22;11731;48.592;8.858;2023-02-11T13:15:44;11.40;92.50
23124;DHT22;11731;48.592;8.858;2023-02-11T13:18:19;11.30;92.30
23124;DHT22;11731;48.592;8.858;2023-02-11T13:20:52;11.10;92.50
23124;DHT22;11731;48.592;8.858;2023-02-11T13:23:39;10.60;92.80
23124;DHT22;11731;48.592;8.858;2023-02-11T13:26:15;10.60;92.50
23124;DHT22;11731;48.592;8.858;2023-02-11T13:28:49;10.40;93.20
23124;DHT22;11731;48.592;8.858;2023-02-11T13:31:21;10.60;92.70
23124;DHT22;11731;48.592;8.858;2023-02-11T13:33:51;10.30;92.80
23124;DHT22;11731;48.592;8.858;2023-02-11T13:36:20;9.90;95.00
23124;DHT22;11731;48.592;8.858;2023-02-11T13:42:12;10.50;93.40
23124;DHT22;11731;48.592;8.858;2023-02-11T13:44:41;10.30;93.50
23124;DHT22;11731;48.592;8.858;2023-02-11T13:47:24;10.30;93.10
23124;DHT22;11731;48.592;8.858;2023-02-11T13:49:52;10.30;93.30
23124;DHT22;11731;48.592;8.858;2023-02-11T13:52:24;10.20;93.10
23124;DHT22;11731;48.592;8.858;2023-02-11T13:54:57;10.20;93.10
23124;DHT22;11731;48.592;8.858;2023-02-11T13:57:31;10.40;93.00
23124;DHT22;11731;48.592;8.858;2023-02-11T14:03:20;10.50;93.10
23124;DHT22;11731;48.592;8.858;2023-02-11T14:06:17;10.20;93.20
23124;DHT22;11731;48.592;8.858;2023-02-11T14:09:36;9.90;94.30
23124;DHT22;11731;48.592;8.858;2023-02-11T14:12:21;9.70;94.70
23124;DHT22;11731;48.592;8.858;2023-02-11T14:17:45;10.10;93.90
23124;DHT22;11731;48.592;8.858;2023-02-11T14:20:36;10.10;94.10
23124;DHT22;11731;48.592;8.858;2023-02-11T14:23:05;9.90;95.00
23124;DHT22;11731;48.592;8.858;2023-02-11T14:25:32;9.90;95.00
23124;DHT22;11731;48.592;8.858;2023-02-11T14:28:05;10.10;94.30
23124;DHT22;11731;48.592;8.858;2023-02-11T14:30:43;10.20;94.40
23124;DHT22;11731;48.592;8.858;2023-02-11T14:36:55;10.30;93.90
23124;DHT22;11731;48.592;8.858;2023-02-11T14:39:36;10.00;94.40
23124;DHT22;11731;48.592;8.858;2023-02-11T14:42:14;10.00;94.50
23124;DHT22;11731;48.592;8.858;2023-02-11T14:44:44;9.90;95.20
23124;DHT22;11731;48.592;8.858;2023-02-11T14:47:18;10.00;94.80
23124;DHT22;11731;48.592;8.858;2023-02-11T14:49:47;10.00;94.70
23124;DHT22;11731;48.592;8.858;2023-02-11T14:52:20;10.00;94.80
23124;DHT22;11731;48.592;8.858;2023-02-11T14:54:50;10.10;94.80
23124;DHT22;11731;48.592;8.858;2023-02-11T14:57:33;10.10;94.80
23124;DHT22;11731;48.592;8.858;2023-02-11T15:02:42;10.60;94.70
23124;DHT22;11731;48.592;8.858;2023-02-11T15:05:16;10.30;94.80
23124;DHT22;11731;48.592;8.858;2023-02-11T15:07:46;10.60;94.70
23124;DHT22;11731;48.592;8.858;2023-02-11T15:10:27;10.50;95.00
23124;DHT22;11731;48.592;8.858;2023-02-11T15:12:57;10.20;95.50
23124;DHT22;11731;48.592;8.858;2023-02-11T15:15:25;10.10;95.90
23124;DHT22;11731;48.592;8.858;2023-02-11T15:18:07;10.00;95.90
23124;DHT22;11731;48.592;8.858;2023-02-11T15:20:47;10.00;96.00
23124;DHT22;11731;48.592;8.858;2023-02-11T15:23:20;10.00;96.10
23124;DHT22;11731;48.592;8.858;2023-02-11T15:25:48;10.00;95.90
23124;DHT22;11731;48.592;8.858;2023-02-11T15:28:22;10.00;96.00
23124;DHT22;11731;48.592;8.858;2023-02-11T15:30:56;10.00;96.30
23124;DHT22;11731;48.592;8.858;2023-02-11T15:33:27;9.70;97.20
23124;DHT22;11731;48.592;8.858;2023-02-11T15:35:57;9.10;97.80
23124;DHT22;11731;48.592;8.858;2023-02-11T15:38:24;9.00;98.30
23124;DHT22;11731;48.592;8.858;2023-02-11T15:40:54;9.20;98.30
23124;DHT22;11731;48.592;8.858;2023-02-11T15:43:23;9.50;98.40
23124;DHT22;11731;48.592;8.858;2023-02-11T15:46:15;9.60;97.30
23124;DHT22;11731;48.592;8.858;2023-02-11T15:48:56;9.90;97.40
23124;DHT22;11731;48.592;8.858;2023-02-11T15:55:13;10.20;96.40
23124;DHT22;11731;48.592;8.858;2023-02-11T15:57:42;10.30;96.30
23124;DHT22;11731;48.592;8.858;2023-02-11T16:00:14;10.20;96.40
23124;DHT22;11731;48.592;8.858;2023-02-11T16:02:44;10.10;96.50
23124;DHT22;11731;48.592;8.858;2023-02-11T16:05:32;10.00;96.60
23124;DHT22;11731;48.592;8.858;2023-02-11T16:08:00;9.80;97.20
23124;DHT22;11731;48.592;8.858;2023-02-11T16:10:38;9.60;97.50
23124;DHT22;11731;48.592;8.858;2023-02-11T16:13:17;9.70;97.30
23124;DHT22;11731;48.592;8.858;2023-02-11T16:16:22;9.70;97.30
23124;DHT22;11731;48.592;8.858;2023-02-11T16:18:49;9.50;97.70
23124;DHT22;11731;48.592;8.858;2023-02-11T16:21:18;9.60;97.60
23124;DHT22;11731;48.592;8.858;2023-02-11T16:23:50;9.30;97.80
23124;DHT22;11731;48.592;8.858;2023-02-11T16:26:23;9.40;97.80
23124;DHT22;11731;48.592;8.858;2023-02-11T16:28:51;9.30;97.80
23124;DHT22;11731;48.592;8.858;2023-02-11T16:31:31;9.20;98.10
23124;DHT22;11731;48.592;8.858;2023-02-11T16:34:00;9.00;98.00
23124;DHT22;11731;48.592;8.858;2023-02-11T16:36:27;8.50;98.80
23124;DHT22;11731;48.592;8.858;2023-02-11T16:38:54;8.30;98.70
23124;DHT22;11731;48.592;8.858;2023-02-11T16:41:20;8.10;99.00
23124;DHT22;11731;48.592;8.858;2023-02-11T16:43:52;7.80;99.10
23124;DHT22;11731;48.592;8.858;2023-02-11T16:46:22;7.50;99.20
23124;DHT22;11731;48.592;8.858;2023-02-11T16:48:50;7.40;99.30
23124;DHT22;11731;48.592;8.858;2023-02-11T16:51:33;6.90;99.00
23124;DHT22;11731;48.592;8.858;2023-02-11T16:54:00;6.60;99.90
23124;DHT22;11731;48.592;8.858;2023-02-11T16:56:35;6.30;99.90
23124;DHT22;11731;48.592;8.858;2023-02-11T16:59:02;6.10;99.90
23124;DHT22;11731;48.592;8.858;2023-02-11T17:01:38;6.30;99.90
23124;DHT22;11731;48.592;8.858;2023-02-11T17:04:16;6.30;99.90
23124;DHT22;11731;48.592;8.858;2023-02-11T17:06:45;6.70;99.90
23124;DHT22;11731;48.592;8.858;2023-02-11T17:09:16;6.50;99.90
23124;DHT22;11731;48.592;8.858;2023-02-11T17:11:44;6.40;99.90
23124;DHT22;11731;48.592;8.858;2023-02-11T17:14:46;6.60;99.90
23124;DHT22;11731;48.592;8.858;2023-02-11T17:17:13;6.80;99.90
23124;DHT22;11731;48.592;8.858;2023-02-11T17:20:04;6.70;99.90
23124;DHT22;11731;48.592;8.858;2023-02-11T17:22:33;6.60;99.90
23124;DHT22;11731;48.592;8.858;2023-02-11T17:25:13;6.50;99.90
23124;DHT22;11731;48.592;8.858;2023-02-11T17:27:59;6.70;99.90
23124;DHT22;11731;48.592;8.858;2023-02-11T17:30:46;6.70;99.90
23124;DHT22;11731;48.592;8.858;2023-02-11T17:33:27;6.40;99.90
23124;DHT22;11731;48.592;8.858;2023-02-11T17:35:54;6.40;99.90
23124;DHT22;11731;48.592;8.858;2023-02-11T17:41:38;6.70;99.90
23124;DHT22;11731;48.592;8.858;2023-02-11T17:44:09;7.00;99.90
23124;DHT22;11731;48.592;8.858;2023-02-11T17:46:38;7.00;99.90
23124;DHT22;11731;48.592;8.858;2023-02-11T17:49:11;6.90;99.90
23124;DHT22;11731;48.592;8.858;2023-02-11T17:51:38;6.90;99.90
23124;DHT22;11731;48.592;8.858;2023-02-11T17:56:23;7.00;99.90
23124;DHT22;11731;48.592;8.858;2023-02-11T17:57:22;7.20;99.90
23124;DHT22;11731;48.592;8.858;2023-02-11T17:59:49;7.00;99.90
23124;DHT22;11731;48.592;8.858;2023-02-11T18:02:16;7.10;99.90
23124;DHT22;11731;48.592;8.858;2023-02-11T18:04:43;7.00;99.90
23124;DHT22;11731;48.592;8.858;2023-02-11T18:09:19;6.90;99.90
23124;DHT22;11731;48.592;8.858;2023-02-11T18:13:06;6.90;99.90
23124;DHT22;11731;48.592;8.858;2023-02-11T18:13:43;6.90;99.90
23124;DHT22;11731;48.592;8.858;2023-02-11T18:16:15;6.90;99.90
23124;DHT22;11731;48.592;8.858;2023-02-11T18:25:44;7.60;99.90
23124;DHT22;11731;48.592;8.858;2023-02-11T18:28:11;8.00;99.90
23124;DHT22;11731;48.592;8.858;2023-02-11T18:30:39;8.40;99.80
23124;DHT22;11731;48.592;8.858;2023-02-11T18:33:16;8.60;98.80
23124;DHT22;11731;48.592;8.858;2023-02-11T18:39:07;8.90;98.70
23124;DHT22;11731;48.592;8.858;2023-02-11T18:42:17;8.90;98.40
23124;DHT22;11731;48.592;8.858;2023-02-11T18:44:56;9.00;98.30
23124;DHT22;11731;48.592;8.858;2023-02-11T18:47:39;9.10;98.10